• Join FlightAware (Why Join?)
  • Login
  • US Flag 
05:23AM EDT


 

Airport Tracker/Info


-or-


 

Live Flight TrackerFlight Track Log ✈ N680AN ✈ 01-May-2013 ✈ KBOS - KDFW

Flight Track Log - Related Links

Times and Time Zones

All times are in EDT time to prevent confusion due to time zone crossing. See the N680AN flight status page for this flight to view local times or setup timezone preferences in your user account.

Time Position Orientation Groundspeed Altitude Reporting Facility
EDT Latitude Longitude Course Direction KTS MPH feet Rate Location/Type
05:52PM 42.3667 -70.9833 240° Southwest 165 190 800  Level KA90
05:54PM 42.3833 -70.8717 79° East 209 241 4,700 2,700 Climbing Boston Center
05:55PM 42.4256 -70.7846 124° Southeast  Level FlightAware Approximate
05:55PM 42.3903 -70.7814 84° East 242 278 7,800  Level Boston Center
05:56PM 42.3366 -70.7228 173° South  Level FlightAware Approximate
05:56PM 42.3333 -70.7269 145° Southeast 223 257 10,700  Level Boston Center
05:57PM 42.2491 -70.7930 228° Southwest  Level FlightAware Approximate
05:57PM 42.2678 -70.7989 219° Southwest 196 226 12,200  Level Boston Center
05:58PM 42.1886 -70.9210 240° Southwest  Level FlightAware Approximate
05:58PM 42.2633 -70.9308 267° West 257 296 14,900  Level Boston Center
05:59PM 42.2569 -71.0825 267° West 348 400 17,700 2,160 Climbing Boston Center
06:00PM 42.2542 -71.2200 268° West 396 456 19,300 1,800 Climbing Boston Center
06:01PM 42.2453 -71.3717 266° West 408 470 21,300 1,920 Climbing Boston Center
06:02PM 42.2383 -71.5286 267° West 413 475 23,200 1,740 Climbing Boston Center
06:03PM 42.2228 -71.6886 263° West 424 488 24,800 1,740 Climbing Boston Center
06:04PM 42.2133 -71.8600 266° West 447 514 26,700 1,860 Climbing Boston Center
06:05PM 42.2036 -72.0308 266° West 460 529 28,600 1,980 Climbing Boston Center
06:06PM 42.1939 -72.2103 266° West 477 549 30,700 2,100 Climbing Boston Center
06:07PM 42.1586 -72.3869 255° West 487 560 32,900 2,100 Climbing Boston Center
06:08PM 42.0794 -72.5436 236° Southwest 482 555 34,900 1,920 Climbing Boston Center
06:09PM 41.9917 -72.7056 234° Southwest 482 555 36,800 1,500 Climbing Boston Center
06:10PM 41.9078 -72.8558 233° Southwest 496 571 38,000 600 Climbing Boston Center
06:11PM 41.8281 -73.0000 233° Southwest 520 598 38,000  Level Boston Center
06:13PM 41.6786 -73.2683 233° Southwest 513 590 38,000  Level New York Center
06:14PM 41.6028 -73.4122 235° Southwest 501 577 38,000  Level New York Center
06:15PM 41.5225 -73.5558 233° Southwest 495 570 38,000  Level New York Center
06:16PM 41.4417 -73.7019 234° Southwest 495 570 38,000  Level New York Center
06:17PM 41.3589 -73.8503 233° Southwest 495 570 38,000  Level New York Center
06:18PM 41.2800 -73.9958 234° Southwest 495 570 38,000  Level New York Center
06:19PM 41.1989 -74.1408 233° Southwest 490 564 38,000  Level New York Center
06:20PM 41.1136 -74.2797 231° Southwest 490 564 38,000  Level New York Center
06:21PM 41.0322 -74.4211 233° Southwest 495 570 38,000  Level New York Center
06:22PM 40.9508 -74.5625 233° Southwest 495 570 38,000  Level New York Center
06:23PM 40.8581 -74.7219 232° Southwest 495 570 38,000  Level New York Center
06:24PM 40.7825 -74.8628 235° Southwest 495 570 38,000  Level New York Center
06:25PM 40.7144 -75.0147 239° Southwest 489 563 38,000  Level New York Center
06:26PM 40.6444 -75.1636 238° Southwest 483 556 38,000  Level New York Center
06:27PM 40.5783 -75.3122 240° Southwest 478 550 38,000  Level New York Center
06:28PM 40.5103 -75.4581 238° Southwest 473 544 38,000 780 Level New York Center
06:29PM 40.4439 -75.6036 239° Southwest 473 544 39,700 960 Climbing New York Center
06:30PM 40.3800 -75.7381 238° Southwest 459 528 40,000 120 Climbing New York Center
06:31PM 40.3156 -75.8775 239° Southwest 448 516 40,000  Level New York Center
06:32PM 40.2561 -75.9983 237° Southwest 448 516 40,000  Level New York Center
06:33PM 40.2078 -76.1442 247° West 443 510 40,000  Level New York Center
06:34PM 40.1650 -76.3067 251° West 443 510 40,000  Level New York Center
06:35PM 40.1286 -76.4558 252° West 438 504 40,000  Level New York Center
06:37PM 40.0647 -76.7056 252° West 450 518 40,000  Level Washington Center
06:38PM 40.0217 -76.8511 249° West 445 512 40,000  Level Washington Center
06:39PM 39.9761 -77.0128 250° West 439 505 40,000  Level Washington Center
06:40PM 39.9389 -77.1583 252° West 434 499 40,000  Level Washington Center
06:41PM 39.8975 -77.3033 250° West 434 499 40,000  Level Washington Center
06:42PM 39.8597 -77.4511 252° West 429 494 40,000  Level Washington Center
06:43PM 39.8181 -77.5933 249° West 429 494 40,000  Level Washington Center
06:44PM 39.7778 -77.7406 250° West 429 494 40,000  Level Washington Center
06:45PM 39.7378 -77.8853 250° West 429 494 40,000  Level Washington Center
06:46PM 39.6975 -78.0267 250° West 429 494 40,000  Level Washington Center
06:47PM 39.6592 -78.1683 251° West 429 494 40,000  Level Washington Center
06:48PM 39.6081 -78.3094 245° Southwest 429 494 40,000  Level Washington Center
06:49PM 39.5508 -78.4364 240° Southwest 429 494 40,000  Level Washington Center
06:50PM 39.4978 -78.5689 243° Southwest 417 480 40,000  Level Washington Center
06:51PM 39.4403 -78.6953 240° Southwest 412 474 40,000  Level Washington Center
06:52PM 39.3869 -78.8219 241° Southwest 406 467 40,000  Level Washington Center
06:53PM 39.3333 -78.9511 242° Southwest 406 467 40,000  Level Washington Center
06:54PM 39.2797 -79.0775 241° Southwest 406 467 40,000  Level Washington Center
06:55PM 39.2219 -79.2033 239° Southwest 406 467 40,000  Level Washington Center
06:56PM 39.1747 -79.3186 242° Southwest 406 467 40,000  Level Washington Center
06:57PM 39.1183 -79.4469 241° Southwest 406 467 40,000  Level Washington Center
06:58PM 39.0622 -79.5750 241° Southwest 406 467 40,000  Level Washington Center
06:59PM 38.9986 -79.7264 242° Southwest 421 484 40,000  Level Washington Center
07:00PM 38.9422 -79.8542 240° Southwest 421 484 40,000  Level Washington Center
07:02PM 38.8164 -80.1278 240° Southwest 415 478 40,000  Level Indianapolis Center
07:03PM 38.7811 -80.2633 252° West 404 465 40,000  Level Indianapolis Center
07:04PM 38.7442 -80.3992 251° West 403 464 40,000  Level Indianapolis Center
07:05PM 38.7092 -80.5325 251° West 398 458 40,000  Level Indianapolis Center
07:06PM 38.6725 -80.6647 250° West 394 453 40,000  Level Indianapolis Center
07:07PM 38.6286 -80.8219 250° West 390 449 40,000  Level Indianapolis Center
07:08PM 38.5936 -80.9519 251° West 387 445 40,000  Level Indianapolis Center
07:09PM 38.5586 -81.0803 251° West 383 441 40,000  Level Indianapolis Center
07:10PM 38.5233 -81.2078 251° West 380 437 40,000  Level Indianapolis Center
07:11PM 38.4878 -81.3350 250° West 378 435 40,000  Level Indianapolis Center
07:12PM 38.4522 -81.4631 251° West 378 435 40,000  Level Indianapolis Center
07:13PM 38.4169 -81.5903 251° West 376 433 40,000  Level Indianapolis Center
07:14PM 38.3814 -81.7178 250° West 377 434 40,000  Level Indianapolis Center
07:15PM 38.3467 -81.8450 251° West 379 436 40,000  Level Indianapolis Center
07:16PM 38.3050 -81.9958 251° West 374 430 40,000  Level Indianapolis Center
07:17PM 38.2689 -82.1228 250° West 379 436 40,000  Level Indianapolis Center
07:18PM 38.2319 -82.2497 250° West 380 437 40,000  Level Indianapolis Center
07:19PM 38.1953 -82.3783 250° West 385 443 40,000  Level Indianapolis Center
07:20PM 38.1558 -82.5122 249° West 385 443 40,000  Level Indianapolis Center
07:21PM 38.1181 -82.6408 250° West 388 447 40,000  Level Indianapolis Center
07:22PM 38.0817 -82.7678 250° West 385 443 40,000  Level Indianapolis Center
07:23PM 38.0386 -82.9164 250° West 386 444 40,000  Level Indianapolis Center
07:25PM 38.0000 -83.0433 249° West 386 444 40,000  Level Indianapolis Center
07:26PM 37.9625 -83.1717 250° West 388 447 40,000  Level Indianapolis Center
07:27PM 37.9236 -83.3008 249° West 391 450 40,000  Level Indianapolis Center
07:28PM 37.8853 -83.4294 249° West 392 451 40,000  Level Indianapolis Center
07:29PM 37.8467 -83.5586 249° West 394 453 40,000  Level Indianapolis Center
07:30PM 37.8019 -83.7081 249° West 392 451 40,000  Level Indianapolis Center
07:31PM 37.7633 -83.8375 249° West 394 453 40,000  Level Indianapolis Center
07:32PM 37.7236 -83.9658 249° West 392 451 40,000  Level Indianapolis Center
07:33PM 37.6847 -84.0944 249° West 393 452 40,000  Level Indianapolis Center
07:34PM 37.6442 -84.2231 248° West 394 453 40,000  Level Indianapolis Center
07:35PM 37.5964 -84.3750 248° West 399 459 40,000  Level Indianapolis Center
07:36PM 37.5567 -84.5044 249° West 396 456 40,000  Level Indianapolis Center
07:37PM 37.5156 -84.6350 248° West 400 460 40,000  Level Indianapolis Center
07:38PM 37.4744 -84.7639 248° West 400 460 40,000  Level Indianapolis Center
07:39PM 37.4336 -84.8944 249° West 401 461 40,000  Level Indianapolis Center
07:40PM 37.3919 -85.0244 248° West 401 461 40,000  Level Indianapolis Center
07:41PM 37.3447 -85.1783 249° West 404 465 40,000  Level Indianapolis Center
07:42PM 37.3022 -85.3094 248° West 404 465 40,000  Level Indianapolis Center
07:43PM 37.2589 -85.4406 247° West 407 468 40,000  Level Indianapolis Center
07:44PM 37.2175 -85.5697 248° West 408 470 40,000  Level Indianapolis Center
07:45PM 37.1814 -85.6836 248° West 414 476 40,000  Level Memphis Center
07:46PM 37.1361 -85.8139 246° West 414 476 40,000  Level Memphis Center
07:47PM 37.0972 -85.9461 250° West 414 476 40,000  Level Memphis Center
07:48PM 37.0539 -86.0758 247° West 409 471 40,000  Level Memphis Center
07:49PM 37.0142 -86.1975 248° West 409 471 40,000  Level Memphis Center
07:50PM 36.9706 -86.3269 247° West 409 471 40,000  Level Memphis Center
07:51PM 36.9267 -86.4564 247° West 414 476 40,000  Level Memphis Center
07:52PM 36.8808 -86.5883 247° West 414 476 40,000  Level Memphis Center
07:53PM 36.8328 -86.7203 246° West 414 476 40,000  Level Memphis Center
07:54PM 36.7864 -86.8492 246° West 414 476 40,000  Level Memphis Center
07:55PM 36.7400 -86.9808 246° West 414 476 40,000  Level Memphis Center
07:56PM 36.6914 -87.1122 245° Southwest 414 476 40,000  Level Memphis Center
07:57PM 36.6428 -87.2458 246° West 414 476 40,000  Level Memphis Center
07:58PM 36.5958 -87.3744 246° West 414 476 40,000  Level Memphis Center
07:59PM 36.5469 -87.5053 245° Southwest 414 476 40,000  Level Memphis Center
08:00PM 36.4978 -87.6361 245° Southwest 419 482 40,000  Level Memphis Center
08:01PM 36.4444 -87.7797 245° Southwest 419 482 40,000  Level Memphis Center
08:02PM 36.3950 -87.9103 245° Southwest 419 482 40,000  Level Memphis Center
08:03PM 36.3453 -88.0406 245° Southwest 426 490 40,000  Level Memphis Center
08:04PM 36.3036 -88.1525 245° Southwest 426 490 40,000  Level Memphis Center
08:05PM 36.2517 -88.2853 244° Southwest 418 481 40,000  Level Memphis Center
08:06PM 36.2017 -88.4178 245° Southwest 418 481 40,000  Level Memphis Center
08:07PM 36.1517 -88.5475 245° Southwest 425 489 40,000  Level Memphis Center
08:08PM 36.0972 -88.6794 243° Southwest 425 489 40,000  Level Memphis Center
08:09PM 36.0467 -88.8142 245° Southwest 431 496 40,000  Level Memphis Center
08:10PM 35.9881 -88.9589 243° Southwest 431 496 40,000  Level Memphis Center
08:11PM 35.9353 -89.0906 244° Southwest 431 496 40,000  Level Memphis Center
08:12PM 35.8844 -89.2244 245° Southwest 431 496 40,000  Level Memphis Center
08:13PM 35.8333 -89.3583 245° Southwest 431 496 40,000  Level Memphis Center
08:14PM 35.7803 -89.4922 244° Southwest 431 496 40,000  Level Memphis Center
08:15PM 35.7289 -89.6231 244° Southwest 431 496 40,000  Level Memphis Center
08:16PM 35.6839 -89.7539 247° West 431 496 40,000  Level Memphis Center
08:17PM 35.6322 -89.8844 244° Southwest 420 483 40,000  Level Memphis Center
08:18PM 35.5783 -90.0125 243° Southwest 426 490 40,000  Level Memphis Center
08:19PM 35.5286 -90.1453 245° Southwest 426 490 40,000  Level Memphis Center
08:20PM 35.4744 -90.2756 243° Southwest 426 490 40,000  Level Memphis Center
08:21PM 35.4225 -90.4056 244° Southwest 426 490 40,000  Level Memphis Center
08:22PM 35.3681 -90.5353 243° Southwest 432 497 40,000  Level Memphis Center
08:23PM 35.3219 -90.6522 244° Southwest 427 491 40,000  Level Memphis Center
08:25PM 35.2169 -90.9111 244° Southwest 432 497 40,000  Level Memphis Center
08:26PM 35.1642 -91.0378 243° Southwest 426 490 40,000  Level Memphis Center
08:27PM 35.1092 -91.1694 243° Southwest 431 496 40,000  Level Memphis Center
08:28PM 35.0581 -91.2983 244° Southwest 425 489 40,000  Level Memphis Center
08:29PM 35.0008 -91.4244 241° Southwest 430 495 40,000  Level Memphis Center
08:30PM 34.9453 -91.5553 243° Southwest 425 489 40,000  Level Memphis Center
08:31PM 34.8897 -91.6836 242° Southwest 425 489 40,000  Level Memphis Center
08:32PM 34.8361 -91.8119 243° Southwest 430 495 40,000  Level Memphis Center
08:33PM 34.7825 -91.9400 243° Southwest 430 495 40,000  Level Memphis Center
08:34PM 34.7244 -92.0703 242° Southwest 430 495 40,000  Level Memphis Center
08:35PM 34.6747 -92.2006 245° Southwest 430 495 40,000  Level Memphis Center
08:36PM 34.6369 -92.3411 252° West 430 495 40,000  Level Memphis Center
08:37PM 34.5992 -92.4817 252° West 437 503 40,000  Level Memphis Center
08:38PM 34.5589 -92.6319 252° West 442 509 40,000  Level Memphis Center
08:39PM 34.5208 -92.7744 252° West 442 509 40,000  Level Memphis Center
08:40PM 34.4825 -92.9144 252° West 442 509 40,000  Level Memphis Center
08:41PM 34.4442 -93.0544 252° West 437 503 40,000  Level Memphis Center
08:42PM 34.3947 -93.2586 254° West 456 525 40,000  Level Fort Worth Center
08:43PM 34.3575 -93.3986 252° West 451 519 40,000  Level Fort Worth Center
08:44PM 34.3181 -93.5386 251° West 445 512 40,000  Level Fort Worth Center
08:45PM 34.2783 -93.6761 251° West 445 512 40,000 -840 Level Fort Worth Center
08:46PM 34.2406 -93.8086 251° West 435 501 38,400 -1,800 Descending Fort Worth Center
08:47PM 34.2008 -93.9508 251° West 435 501 36,500 -1,740 Descending Fort Worth Center
08:48PM 34.1608 -94.0928 251° West 442 509 35,000 -780 Descending Fort Worth Center
08:49PM 34.1206 -94.2350 251° West 450 518 35,000  Level Fort Worth Center
08:50PM 34.0822 -94.3742 252° West 444 511 35,000 -240 Level Fort Worth Center
08:51PM 34.0439 -94.5083 251° West 437 503 34,600 -1,080 Descending Fort Worth Center
08:52PM 34.0050 -94.6425 251° West 432 497 32,900 -1,500 Descending Fort Worth Center
08:53PM 33.9683 -94.7739 251° West 432 497 31,700 -1,200 Descending Fort Worth Center
08:54PM 33.9292 -94.8978 249° West 421 484 30,500 -1,920 Descending Fort Worth Center
08:55PM 33.8919 -95.0264 251° West 415 478 27,900 -1,920 Descending Fort Worth Center
08:56PM 33.8547 -95.1575 251° West 415 478 26,700 -1,080 Descending Fort Worth Center
08:57PM 33.8133 -95.2961 250° West 422 486 25,800 -960 Descending Fort Worth Center
08:58PM 33.7717 -95.4369 250° West 435 501 24,800 -1,380 Descending Fort Worth Center
08:59PM 33.7194 -95.5656 244° Southwest 440 506 23,100 -2,040 Descending Fort Worth Center
09:00PM 33.6606 -95.6864 240° Southwest 435 501 20,800 -2,340 Descending Fort Worth Center
09:01PM 33.6100 -95.8047 243° Southwest 423 487 18,500 -2,580 Descending Fort Worth Center
09:02PM 33.5678 -95.9378 249° West 405 466 15,700 -2,460 Descending Fort Worth Center
09:03PM 33.5253 -96.0506 246° West 385 443 13,600 -2,160 Descending Fort Worth Center
09:04PM 33.4869 -96.1656 248° West 378 435 11,400 -1,320 Descending Fort Worth Center
09:05PM 33.4461 -96.2733 246° West 373 429 11,000 -180 Descending Fort Worth Center
09:06PM 33.4114 -96.3683 246° West 330 380 11,100  Climbing Fort Worth Center
09:07PM 33.3600 -96.4508 233° Southwest 318 366 11,000 -1,020 Descending Fort Worth Center
09:08PM 33.3083 -96.5286 232° Southwest 306 352 9,100 -1,800 Descending Fort Worth Center
09:09PM 33.2631 -96.6111 237° Southwest 299 344 7,400 -1,620 Descending Fort Worth Center
09:10PM 33.2194 -96.6883 236° Southwest 289 333 5,900 -1,200 Descending Fort Worth Center
09:11PM 33.1783 -96.7681 238° Southwest 283 326 5,100 -420 Descending Fort Worth Center
09:12PM 33.1389 -96.8453 239° Southwest 283 326 5,100 -180 Level Fort Worth Center
09:13PM 33.0956 -96.9200 235° Southwest 283 326 4,800 -300 Descending Fort Worth Center